sensor_id;sensor_type;location;lat;lon;timestamp;P1;durP1;ratioP1;P2;durP2;ratioP2
2362;SDS011;64265;51.664;7.626;2022-10-16T00:00:43;12.57;;;10.93;;
2362;SDS011;64265;51.664;7.626;2022-10-16T00:03:10;15.30;;;11.80;;
2362;SDS011;64265;51.664;7.626;2022-10-16T00:05:38;13.77;;;10.10;;
2362;SDS011;64265;51.664;7.626;2022-10-16T00:08:06;11.37;;;9.57;;
2362;SDS011;64265;51.664;7.626;2022-10-16T00:10:34;16.87;;;11.50;;
2362;SDS011;64265;51.664;7.626;2022-10-16T00:13:02;13.83;;;10.23;;
2362;SDS011;64265;51.664;7.626;2022-10-16T00:15:29;11.90;;;9.53;;
2362;SDS011;64265;51.664;7.626;2022-10-16T00:17:56;12.60;;;10.30;;
2362;SDS011;64265;51.664;7.626;2022-10-16T00:20:23;14.60;;;10.43;;
2362;SDS011;64265;51.664;7.626;2022-10-16T00:22:50;16.80;;;11.20;;
2362;SDS011;64265;51.664;7.626;2022-10-16T00:25:16;14.63;;;10.00;;
2362;SDS011;64265;51.664;7.626;2022-10-16T00:27:43;12.50;;;10.43;;
2362;SDS011;64265;51.664;7.626;2022-10-16T00:30:11;11.90;;;10.00;;
2362;SDS011;64265;51.664;7.626;2022-10-16T00:32:38;16.07;;;11.10;;
2362;SDS011;64265;51.664;7.626;2022-10-16T00:35:05;15.10;;;10.70;;
2362;SDS011;64265;51.664;7.626;2022-10-16T00:37:32;12.93;;;9.90;;
2362;SDS011;64265;51.664;7.626;2022-10-16T00:39:59;15.63;;;11.63;;
2362;SDS011;64265;51.664;7.626;2022-10-16T00:42:25;15.30;;;9.63;;
2362;SDS011;64265;51.664;7.626;2022-10-16T00:44:53;11.87;;;10.33;;
2362;SDS011;64265;51.664;7.626;2022-10-16T00:47:24;16.33;;;10.80;;
2362;SDS011;64265;51.664;7.626;2022-10-16T00:49:56;14.30;;;10.30;;
2362;SDS011;64265;51.664;7.626;2022-10-16T00:52:25;11.67;;;9.70;;
2362;SDS011;64265;51.664;7.626;2022-10-16T00:54:52;11.23;;;8.90;;
2362;SDS011;64265;51.664;7.626;2022-10-16T00:57:20;11.90;;;9.97;;
2362;SDS011;64265;51.664;7.626;2022-10-16T00:59:47;10.90;;;9.30;;
2362;SDS011;64265;51.664;7.626;2022-10-16T01:02:15;10.70;;;8.07;;
2362;SDS011;64265;51.664;7.626;2022-10-16T01:04:44;10.43;;;9.20;;
2362;SDS011;64265;51.664;7.626;2022-10-16T01:07:16;12.57;;;9.60;;
2362;SDS011;64265;51.664;7.626;2022-10-16T01:09:52;11.63;;;10.48;;
2362;SDS011;64265;51.664;7.626;2022-10-16T01:12:30;10.23;;;8.70;;
2362;SDS011;64265;51.664;7.626;2022-10-16T01:15:07;10.88;;;8.95;;
2362;SDS011;64265;51.664;7.626;2022-10-16T01:18:03;11.80;;;8.70;;
2362;SDS011;64265;51.664;7.626;2022-10-16T01:20:37;12.30;;;8.67;;
2362;SDS011;64265;51.664;7.626;2022-10-16T01:23:10;11.30;;;9.60;;
2362;SDS011;64265;51.664;7.626;2022-10-16T01:25:52;11.30;;;8.70;;
2362;SDS011;64265;51.664;7.626;2022-10-16T01:28:32;11.20;;;8.55;;
2362;SDS011;64265;51.664;7.626;2022-10-16T01:31:05;11.82;;;7.97;;
2362;SDS011;64265;51.664;7.626;2022-10-16T01:33:34;10.80;;;8.80;;
2362;SDS011;64265;51.664;7.626;2022-10-16T01:36:06;10.65;;;9.15;;
2362;SDS011;64265;51.664;7.626;2022-10-16T01:38:38;10.63;;;8.57;;
2362;SDS011;64265;51.664;7.626;2022-10-16T01:41:07;9.65;;;8.35;;
2362;SDS011;64265;51.664;7.626;2022-10-16T01:43:39;11.77;;;9.57;;
2362;SDS011;64265;51.664;7.626;2022-10-16T01:46:10;11.83;;;8.20;;
2362;SDS011;64265;51.664;7.626;2022-10-16T01:48:39;10.95;;;8.93;;
2362;SDS011;64265;51.664;7.626;2022-10-16T01:51:07;12.15;;;8.82;;
2362;SDS011;64265;51.664;7.626;2022-10-16T01:53:36;11.83;;;7.43;;
2362;SDS011;64265;51.664;7.626;2022-10-16T01:56:04;11.82;;;8.38;;
2362;SDS011;64265;51.664;7.626;2022-10-16T01:58:36;9.30;;;8.35;;
2362;SDS011;64265;51.664;7.626;2022-10-16T02:01:08;10.45;;;8.32;;
2362;SDS011;64265;51.664;7.626;2022-10-16T02:03:39;12.43;;;8.95;;
2362;SDS011;64265;51.664;7.626;2022-10-16T02:06:08;8.07;;;7.28;;
2362;SDS011;64265;51.664;7.626;2022-10-16T02:08:35;8.95;;;7.47;;
2362;SDS011;64265;51.664;7.626;2022-10-16T02:11:04;9.10;;;8.15;;
2362;SDS011;64265;51.664;7.626;2022-10-16T02:13:32;9.77;;;7.90;;
2362;SDS011;64265;51.664;7.626;2022-10-16T02:16:04;9.82;;;8.90;;
2362;SDS011;64265;51.664;7.626;2022-10-16T02:18:32;9.32;;;7.35;;
2362;SDS011;64265;51.664;7.626;2022-10-16T02:20:59;9.25;;;8.35;;
2362;SDS011;64265;51.664;7.626;2022-10-16T02:23:29;9.77;;;8.35;;
2362;SDS011;64265;51.664;7.626;2022-10-16T02:26:04;8.60;;;7.17;;
2362;SDS011;64265;51.664;7.626;2022-10-16T02:28:34;10.55;;;8.52;;
2362;SDS011;64265;51.664;7.626;2022-10-16T02:31:07;10.40;;;7.63;;
2362;SDS011;64265;51.664;7.626;2022-10-16T02:33:37;9.27;;;7.30;;
2362;SDS011;64265;51.664;7.626;2022-10-16T02:36:06;9.50;;;8.32;;
2362;SDS011;64265;51.664;7.626;2022-10-16T02:38:34;9.02;;;6.90;;
2362;SDS011;64265;51.664;7.626;2022-10-16T02:41:01;9.98;;;7.97;;
2362;SDS011;64265;51.664;7.626;2022-10-16T02:43:29;9.13;;;7.63;;
2362;SDS011;64265;51.664;7.626;2022-10-16T02:45:56;10.43;;;7.15;;
2362;SDS011;64265;51.664;7.626;2022-10-16T02:48:24;8.20;;;6.80;;
2362;SDS011;64265;51.664;7.626;2022-10-16T02:50:50;10.38;;;7.47;;
2362;SDS011;64265;51.664;7.626;2022-10-16T02:53:17;8.60;;;7.75;;
2362;SDS011;64265;51.664;7.626;2022-10-16T02:55:44;7.13;;;6.00;;
2362;SDS011;64265;51.664;7.626;2022-10-16T02:58:10;8.23;;;6.60;;
2362;SDS011;64265;51.664;7.626;2022-10-16T03:00:37;9.88;;;7.05;;
2362;SDS011;64265;51.664;7.626;2022-10-16T03:03:04;8.90;;;7.30;;
2362;SDS011;64265;51.664;7.626;2022-10-16T03:05:32;9.30;;;7.18;;
2362;SDS011;64265;51.664;7.626;2022-10-16T03:07:59;8.90;;;7.05;;
2362;SDS011;64265;51.664;7.626;2022-10-16T03:10:26;10.52;;;7.13;;
2362;SDS011;64265;51.664;7.626;2022-10-16T03:12:52;9.93;;;7.13;;
2362;SDS011;64265;51.664;7.626;2022-10-16T03:15:19;9.45;;;7.65;;
2362;SDS011;64265;51.664;7.626;2022-10-16T03:17:46;7.32;;;6.60;;
2362;SDS011;64265;51.664;7.626;2022-10-16T03:20:12;6.88;;;6.15;;
2362;SDS011;64265;51.664;7.626;2022-10-16T03:22:41;12.20;;;7.32;;
2362;SDS011;64265;51.664;7.626;2022-10-16T03:25:08;7.47;;;6.30;;
2362;SDS011;64265;51.664;7.626;2022-10-16T03:27:35;8.48;;;6.78;;
2362;SDS011;64265;51.664;7.626;2022-10-16T03:30:01;6.70;;;6.00;;
2362;SDS011;64265;51.664;7.626;2022-10-16T03:32:28;7.60;;;6.00;;
2362;SDS011;64265;51.664;7.626;2022-10-16T03:34:55;7.93;;;6.43;;
2362;SDS011;64265;51.664;7.626;2022-10-16T03:37:22;7.97;;;5.57;;
2362;SDS011;64265;51.664;7.626;2022-10-16T03:39:50;6.30;;;5.40;;
2362;SDS011;64265;51.664;7.626;2022-10-16T03:42:17;6.20;;;5.57;;
2362;SDS011;64265;51.664;7.626;2022-10-16T03:44:44;7.70;;;6.33;;
2362;SDS011;64265;51.664;7.626;2022-10-16T03:47:10;6.47;;;5.87;;
2362;SDS011;64265;51.664;7.626;2022-10-16T03:49:37;6.33;;;5.10;;
2362;SDS011;64265;51.664;7.626;2022-10-16T03:52:04;6.93;;;6.23;;
2362;SDS011;64265;51.664;7.626;2022-10-16T03:54:31;6.67;;;5.60;;
2362;SDS011;64265;51.664;7.626;2022-10-16T03:56:59;6.30;;;5.70;;
2362;SDS011;64265;51.664;7.626;2022-10-16T03:59:25;7.03;;;6.33;;
2362;SDS011;64265;51.664;7.626;2022-10-16T04:01:52;6.17;;;5.50;;
2362;SDS011;64265;51.664;7.626;2022-10-16T04:04:19;6.70;;;5.70;;
2362;SDS011;64265;51.664;7.626;2022-10-16T04:06:45;8.07;;;6.97;;
2362;SDS011;64265;51.664;7.626;2022-10-16T04:09:12;8.10;;;5.60;;
2362;SDS011;64265;51.664;7.626;2022-10-16T04:11:39;7.73;;;5.90;;
2362;SDS011;64265;51.664;7.626;2022-10-16T04:14:07;7.30;;;5.73;;
2362;SDS011;64265;51.664;7.626;2022-10-16T04:16:34;5.43;;;4.93;;
2362;SDS011;64265;51.664;7.626;2022-10-16T04:19:00;6.10;;;5.50;;
2362;SDS011;64265;51.664;7.626;2022-10-16T04:21:27;7.70;;;6.50;;
2362;SDS011;64265;51.664;7.626;2022-10-16T04:23:54;7.40;;;5.70;;
2362;SDS011;64265;51.664;7.626;2022-10-16T04:26:20;7.07;;;5.20;;
2362;SDS011;64265;51.664;7.626;2022-10-16T04:28:47;4.80;;;4.30;;
2362;SDS011;64265;51.664;7.626;2022-10-16T04:31:15;5.83;;;5.30;;
2362;SDS011;64265;51.664;7.626;2022-10-16T04:33:42;5.87;;;5.37;;
2362;SDS011;64265;51.664;7.626;2022-10-16T04:36:08;5.97;;;5.10;;
2362;SDS011;64265;51.664;7.626;2022-10-16T04:38:35;6.03;;;5.43;;
2362;SDS011;64265;51.664;7.626;2022-10-16T04:41:02;5.67;;;4.83;;
2362;SDS011;64265;51.664;7.626;2022-10-16T04:43:29;5.43;;;4.40;;
2362;SDS011;64265;51.664;7.626;2022-10-16T04:45:56;6.50;;;5.80;;
2362;SDS011;64265;51.664;7.626;2022-10-16T04:48:24;6.13;;;5.53;;
2362;SDS011;64265;51.664;7.626;2022-10-16T04:50:51;6.03;;;5.37;;
2362;SDS011;64265;51.664;7.626;2022-10-16T04:53:18;6.07;;;5.47;;
2362;SDS011;64265;51.664;7.626;2022-10-16T04:55:45;5.20;;;4.70;;
2362;SDS011;64265;51.664;7.626;2022-10-16T04:58:11;4.63;;;4.20;;
2362;SDS011;64265;51.664;7.626;2022-10-16T05:00:38;5.57;;;5.07;;
2362;SDS011;64265;51.664;7.626;2022-10-16T05:03:05;5.57;;;5.00;;
2362;SDS011;64265;51.664;7.626;2022-10-16T05:05:35;5.07;;;4.20;;
2362;SDS011;64265;51.664;7.626;2022-10-16T05:08:02;6.00;;;4.70;;
2362;SDS011;64265;51.664;7.626;2022-10-16T05:10:29;5.47;;;4.97;;
2362;SDS011;64265;51.664;7.626;2022-10-16T05:12:55;5.40;;;4.57;;
2362;SDS011;64265;51.664;7.626;2022-10-16T05:15:22;7.23;;;5.40;;
2362;SDS011;64265;51.664;7.626;2022-10-16T05:17:51;5.33;;;4.70;;
2362;SDS011;64265;51.664;7.626;2022-10-16T05:20:18;5.27;;;4.77;;
2362;SDS011;64265;51.664;7.626;2022-10-16T05:22:46;5.33;;;4.87;;
2362;SDS011;64265;51.664;7.626;2022-10-16T05:25:13;4.57;;;4.10;;
2362;SDS011;64265;51.664;7.626;2022-10-16T05:27:40;5.13;;;4.70;;
2362;SDS011;64265;51.664;7.626;2022-10-16T05:30:07;4.40;;;4.00;;
2362;SDS011;64265;51.664;7.626;2022-10-16T05:32:34;4.40;;;4.00;;
2362;SDS011;64265;51.664;7.626;2022-10-16T05:35:01;4.00;;;3.70;;
2362;SDS011;64265;51.664;7.626;2022-10-16T05:37:28;4.40;;;4.00;;
2362;SDS011;64265;51.664;7.626;2022-10-16T05:39:56;4.30;;;3.90;;
2362;SDS011;64265;51.664;7.626;2022-10-16T05:42:22;3.67;;;3.37;;
2362;SDS011;64265;51.664;7.626;2022-10-16T05:44:49;4.77;;;4.37;;
2362;SDS011;64265;51.664;7.626;2022-10-16T05:47:16;5.30;;;4.10;;
2362;SDS011;64265;51.664;7.626;2022-10-16T05:49:42;5.27;;;4.00;;
2362;SDS011;64265;51.664;7.626;2022-10-16T05:52:09;4.37;;;3.97;;
2362;SDS011;64265;51.664;7.626;2022-10-16T05:54:36;4.40;;;4.00;;
2362;SDS011;64265;51.664;7.626;2022-10-16T05:57:04;4.73;;;3.77;;
2362;SDS011;64265;51.664;7.626;2022-10-16T05:59:31;4.60;;;3.97;;
2362;SDS011;64265;51.664;7.626;2022-10-16T06:01:58;4.50;;;4.10;;
2362;SDS011;64265;51.664;7.626;2022-10-16T06:04:25;4.63;;;3.93;;
2362;SDS011;64265;51.664;7.626;2022-10-16T06:06:52;4.20;;;3.80;;
2362;SDS011;64265;51.664;7.626;2022-10-16T06:09:19;5.07;;;4.17;;
2362;SDS011;64265;51.664;7.626;2022-10-16T06:11:45;4.27;;;3.87;;
2362;SDS011;64265;51.664;7.626;2022-10-16T06:14:13;5.13;;;4.20;;
2362;SDS011;64265;51.664;7.626;2022-10-16T06:16:40;4.77;;;4.37;;
2362;SDS011;64265;51.664;7.626;2022-10-16T06:19:07;6.13;;;5.37;;
2362;SDS011;64265;51.664;7.626;2022-10-16T06:21:34;6.50;;;4.60;;
2362;SDS011;64265;51.664;7.626;2022-10-16T06:24:01;8.60;;;5.60;;
2362;SDS011;64265;51.664;7.626;2022-10-16T06:26:29;7.27;;;5.67;;
2362;SDS011;64265;51.664;7.626;2022-10-16T06:28:57;6.33;;;5.60;;
2362;SDS011;64265;51.664;7.626;2022-10-16T06:31:26;6.50;;;5.57;;
2362;SDS011;64265;51.664;7.626;2022-10-16T06:33:56;6.73;;;5.87;;
2362;SDS011;64265;51.664;7.626;2022-10-16T06:36:23;5.83;;;5.30;;
2362;SDS011;64265;51.664;7.626;2022-10-16T06:38:51;7.27;;;5.33;;
2362;SDS011;64265;51.664;7.626;2022-10-16T06:41:18;6.50;;;5.80;;
2362;SDS011;64265;51.664;7.626;2022-10-16T06:43:47;6.17;;;5.57;;
2362;SDS011;64265;51.664;7.626;2022-10-16T06:46:15;6.30;;;5.67;;
2362;SDS011;64265;51.664;7.626;2022-10-16T06:48:44;6.33;;;5.73;;
2362;SDS011;64265;51.664;7.626;2022-10-16T06:51:11;6.10;;;5.40;;
2362;SDS011;64265;51.664;7.626;2022-10-16T06:53:40;7.03;;;6.10;;
2362;SDS011;64265;51.664;7.626;2022-10-16T06:56:08;7.07;;;4.90;;
2362;SDS011;64265;51.664;7.626;2022-10-16T06:58:36;5.27;;;4.77;;
2362;SDS011;64265;51.664;7.626;2022-10-16T07:01:03;6.20;;;5.60;;
2362;SDS011;64265;51.664;7.626;2022-10-16T07:03:29;6.10;;;4.90;;
2362;SDS011;64265;51.664;7.626;2022-10-16T07:06:00;6.63;;;5.70;;
2362;SDS011;64265;51.664;7.626;2022-10-16T07:08:30;5.57;;;5.00;;
2362;SDS011;64265;51.664;7.626;2022-10-16T07:10:58;6.57;;;5.67;;
2362;SDS011;64265;51.664;7.626;2022-10-16T07:13:25;6.27;;;5.13;;
2362;SDS011;64265;51.664;7.626;2022-10-16T07:15:52;7.00;;;5.80;;
2362;SDS011;64265;51.664;7.626;2022-10-16T07:18:19;5.70;;;5.20;;
2362;SDS011;64265;51.664;7.626;2022-10-16T07:20:45;5.50;;;4.97;;
2362;SDS011;64265;51.664;7.626;2022-10-16T07:23:13;6.23;;;5.60;;
2362;SDS011;64265;51.664;7.626;2022-10-16T07:25:40;6.07;;;5.47;;
2362;SDS011;64265;51.664;7.626;2022-10-16T07:28:07;5.30;;;4.47;;
2362;SDS011;64265;51.664;7.626;2022-10-16T07:30:34;5.77;;;4.70;;
2362;SDS011;64265;51.664;7.626;2022-10-16T07:33:02;6.90;;;5.30;;
2362;SDS011;64265;51.664;7.626;2022-10-16T07:35:29;6.20;;;5.60;;
2362;SDS011;64265;51.664;7.626;2022-10-16T07:37:55;7.20;;;5.30;;
2362;SDS011;64265;51.664;7.626;2022-10-16T07:40:23;5.90;;;4.37;;
2362;SDS011;64265;51.664;7.626;2022-10-16T07:42:52;5.87;;;5.27;;
2362;SDS011;64265;51.664;7.626;2022-10-16T07:45:18;5.13;;;4.40;;
2362;SDS011;64265;51.664;7.626;2022-10-16T07:47:45;7.50;;;5.30;;
2362;SDS011;64265;51.664;7.626;2022-10-16T07:50:12;6.13;;;5.43;;
2362;SDS011;64265;51.664;7.626;2022-10-16T07:52:38;5.33;;;4.83;;
2362;SDS011;64265;51.664;7.626;2022-10-16T07:55:05;4.73;;;4.23;;
2362;SDS011;64265;51.664;7.626;2022-10-16T07:57:34;5.53;;;4.73;;
2362;SDS011;64265;51.664;7.626;2022-10-16T08:00:01;6.67;;;5.73;;
2362;SDS011;64265;51.664;7.626;2022-10-16T08:02:27;5.83;;;4.93;;
2362;SDS011;64265;51.664;7.626;2022-10-16T08:04:55;6.13;;;4.53;;
2362;SDS011;64265;51.664;7.626;2022-10-16T08:07:21;6.60;;;4.80;;
2362;SDS011;64265;51.664;7.626;2022-10-16T08:09:49;5.53;;;4.40;;
2362;SDS011;64265;51.664;7.626;2022-10-16T08:12:16;5.30;;;4.80;;
2362;SDS011;64265;51.664;7.626;2022-10-16T08:14:44;4.90;;;4.10;;
2362;SDS011;64265;51.664;7.626;2022-10-16T08:17:13;5.50;;;4.50;;
2362;SDS011;64265;51.664;7.626;2022-10-16T08:19:43;5.23;;;4.73;;
2362;SDS011;64265;51.664;7.626;2022-10-16T08:22:10;3.87;;;3.53;;
2362;SDS011;64265;51.664;7.626;2022-10-16T08:24:37;5.60;;;3.53;;
2362;SDS011;64265;51.664;7.626;2022-10-16T08:27:04;4.20;;;3.70;;
2362;SDS011;64265;51.664;7.626;2022-10-16T08:29:31;10.57;;;4.67;;
2362;SDS011;64265;51.664;7.626;2022-10-16T08:31:59;5.43;;;4.07;;
2362;SDS011;64265;51.664;7.626;2022-10-16T08:34:26;9.10;;;4.30;;
2362;SDS011;64265;51.664;7.626;2022-10-16T08:36:53;6.60;;;4.43;;
2362;SDS011;64265;51.664;7.626;2022-10-16T08:39:20;8.40;;;4.20;;
2362;SDS011;64265;51.664;7.626;2022-10-16T08:41:55;10.37;;;4.07;;
2362;SDS011;64265;51.664;7.626;2022-10-16T08:44:41;4.20;;;3.80;;
2362;SDS011;64265;51.664;7.626;2022-10-16T08:47:25;5.07;;;4.57;;
2362;SDS011;64265;51.664;7.626;2022-10-16T08:50:02;5.40;;;4.00;;
2362;SDS011;64265;51.664;7.626;2022-10-16T08:52:35;3.93;;;3.47;;
2362;SDS011;64265;51.664;7.626;2022-10-16T08:55:06;3.70;;;3.40;;
2362;SDS011;64265;51.664;7.626;2022-10-16T08:57:41;4.30;;;4.00;;
2362;SDS011;64265;51.664;7.626;2022-10-16T09:00:12;4.73;;;4.23;;
2362;SDS011;64265;51.664;7.626;2022-10-16T09:02:43;5.30;;;3.80;;
2362;SDS011;64265;51.664;7.626;2022-10-16T09:05:21;3.87;;;3.43;;
2362;SDS011;64265;51.664;7.626;2022-10-16T09:07:55;4.97;;;3.37;;
2362;SDS011;64265;51.664;7.626;2022-10-16T09:10:30;3.77;;;3.47;;
2362;SDS011;64265;51.664;7.626;2022-10-16T09:13:09;3.83;;;3.47;;
2362;SDS011;64265;51.664;7.626;2022-10-16T09:15:44;4.87;;;3.87;;
2362;SDS011;64265;51.664;7.626;2022-10-16T09:18:18;4.17;;;3.53;;
2362;SDS011;64265;51.664;7.626;2022-10-16T09:20:51;4.57;;;3.70;;
2362;SDS011;64265;51.664;7.626;2022-10-16T09:23:25;3.90;;;2.80;;
2362;SDS011;64265;51.664;7.626;2022-10-16T09:25:54;4.07;;;3.30;;
2362;SDS011;64265;51.664;7.626;2022-10-16T09:28:21;4.63;;;4.03;;
2362;SDS011;64265;51.664;7.626;2022-10-16T09:30:48;3.67;;;3.37;;
2362;SDS011;64265;51.664;7.626;2022-10-16T09:33:19;3.90;;;3.50;;
2362;SDS011;64265;51.664;7.626;2022-10-16T09:35:49;4.00;;;3.60;;
2362;SDS011;64265;51.664;7.626;2022-10-16T09:38:21;3.27;;;2.97;;
2362;SDS011;64265;51.664;7.626;2022-10-16T09:40:49;2.53;;;2.17;;
2362;SDS011;64265;51.664;7.626;2022-10-16T09:43:19;4.63;;;2.30;;
2362;SDS011;64265;51.664;7.626;2022-10-16T09:45:55;3.67;;;2.37;;
2362;SDS011;64265;51.664;7.626;2022-10-16T09:48:28;6.63;;;3.07;;
2362;SDS011;64265;51.664;7.626;2022-10-16T09:51:02;2.60;;;2.40;;
2362;SDS011;64265;51.664;7.626;2022-10-16T09:53:40;3.20;;;2.50;;
2362;SDS011;64265;51.664;7.626;2022-10-16T09:56:09;2.77;;;2.57;;
2362;SDS011;64265;51.664;7.626;2022-10-16T09:58:41;3.33;;;2.90;;
2362;SDS011;64265;51.664;7.626;2022-10-16T10:01:10;5.23;;;2.37;;
2362;SDS011;64265;51.664;7.626;2022-10-16T10:03:41;3.10;;;2.20;;
2362;SDS011;64265;51.664;7.626;2022-10-16T10:06:16;3.30;;;2.90;;
2362;SDS011;64265;51.664;7.626;2022-10-16T10:08:54;3.10;;;2.30;;
2362;SDS011;64265;51.664;7.626;2022-10-16T10:11:38;2.50;;;2.13;;
2362;SDS011;64265;51.664;7.626;2022-10-16T10:14:11;3.33;;;2.73;;
2362;SDS011;64265;51.664;7.626;2022-10-16T10:16:43;2.30;;;2.07;;
2362;SDS011;64265;51.664;7.626;2022-10-16T10:19:14;4.40;;;3.10;;
2362;SDS011;64265;51.664;7.626;2022-10-16T10:21:42;3.83;;;2.57;;
2362;SDS011;64265;51.664;7.626;2022-10-16T10:24:10;2.30;;;2.10;;
2362;SDS011;64265;51.664;7.626;2022-10-16T10:26:38;2.87;;;2.67;;
2362;SDS011;64265;51.664;7.626;2022-10-16T10:29:08;2.97;;;2.37;;
2362;SDS011;64265;51.664;7.626;2022-10-16T10:31:45;3.00;;;2.40;;
2362;SDS011;64265;51.664;7.626;2022-10-16T10:34:25;2.97;;;2.67;;
2362;SDS011;64265;51.664;7.626;2022-10-16T10:37:04;3.83;;;2.93;;
2362;SDS011;64265;51.664;7.626;2022-10-16T10:39:52;3.40;;;2.17;;
2362;SDS011;64265;51.664;7.626;2022-10-16T10:42:25;2.60;;;2.40;;
2362;SDS011;64265;51.664;7.626;2022-10-16T10:45:03;2.40;;;2.20;;
2362;SDS011;64265;51.664;7.626;2022-10-16T10:47:44;2.47;;;2.10;;
2362;SDS011;64265;51.664;7.626;2022-10-16T10:50:23;2.63;;;2.33;;
2362;SDS011;64265;51.664;7.626;2022-10-16T10:53:04;3.20;;;2.40;;
2362;SDS011;64265;51.664;7.626;2022-10-16T10:55:39;2.40;;;2.20;;
2362;SDS011;64265;51.664;7.626;2022-10-16T10:58:17;2.33;;;2.13;;
2362;SDS011;64265;51.664;7.626;2022-10-16T11:01:09;3.30;;;2.47;;
2362;SDS011;64265;51.664;7.626;2022-10-16T11:03:42;2.40;;;2.00;;
2362;SDS011;64265;51.664;7.626;2022-10-16T11:06:25;2.00;;;1.80;;
2362;SDS011;64265;51.664;7.626;2022-10-16T11:08:57;3.43;;;2.37;;
2362;SDS011;64265;51.664;7.626;2022-10-16T11:11:29;2.77;;;2.57;;
2362;SDS011;64265;51.664;7.626;2022-10-16T11:14:02;2.30;;;1.70;;
2362;SDS011;64265;51.664;7.626;2022-10-16T11:16:34;3.37;;;2.50;;
2362;SDS011;64265;51.664;7.626;2022-10-16T11:19:08;3.87;;;2.20;;
2362;SDS011;64265;51.664;7.626;2022-10-16T11:21:42;3.20;;;1.87;;
2362;SDS011;64265;51.664;7.626;2022-10-16T11:24:16;3.30;;;1.97;;
2362;SDS011;64265;51.664;7.626;2022-10-16T11:26:48;2.27;;;1.90;;
2362;SDS011;64265;51.664;7.626;2022-10-16T11:29:17;2.50;;;1.80;;
2362;SDS011;64265;51.664;7.626;2022-10-16T11:31:57;4.33;;;1.47;;
2362;SDS011;64265;51.664;7.626;2022-10-16T11:34:28;9.37;;;1.20;;
2362;SDS011;64265;51.664;7.626;2022-10-16T11:37:01;6.27;;;2.80;;
2362;SDS011;64265;51.664;7.626;2022-10-16T11:39:32;8.50;;;5.50;;
2362;SDS011;64265;51.664;7.626;2022-10-16T11:42:00;6.87;;;5.20;;
2362;SDS011;64265;51.664;7.626;2022-10-16T11:44:36;6.77;;;4.00;;
2362;SDS011;64265;51.664;7.626;2022-10-16T11:47:12;11.77;;;8.18;;
2362;SDS011;64265;51.664;7.626;2022-10-16T11:49:49;8.77;;;3.80;;
2362;SDS011;64265;51.664;7.626;2022-10-16T11:52:25;8.80;;;6.07;;
2362;SDS011;64265;51.664;7.626;2022-10-16T11:54:57;10.33;;;5.77;;
2362;SDS011;64265;51.664;7.626;2022-10-16T11:57:29;15.43;;;8.77;;
2362;SDS011;64265;51.664;7.626;2022-10-16T12:00:00;16.58;;;8.43;;
2362;SDS011;64265;51.664;7.626;2022-10-16T12:02:32;12.65;;;6.78;;
2362;SDS011;64265;51.664;7.626;2022-10-16T12:05:12;12.07;;;6.25;;
2362;SDS011;64265;51.664;7.626;2022-10-16T12:07:48;26.50;;;18.03;;
2362;SDS011;64265;51.664;7.626;2022-10-16T12:10:25;28.40;;;20.17;;
2362;SDS011;64265;51.664;7.626;2022-10-16T12:12:56;31.27;;;19.13;;
2362;SDS011;64265;51.664;7.626;2022-10-16T12:15:24;32.40;;;21.00;;
2362;SDS011;64265;51.664;7.626;2022-10-16T12:17:52;24.07;;;20.87;;
2362;SDS011;64265;51.664;7.626;2022-10-16T12:20:21;35.93;;;22.00;;
2362;SDS011;64265;51.664;7.626;2022-10-16T12:22:53;33.80;;;21.03;;
2362;SDS011;64265;51.664;7.626;2022-10-16T12:25:22;29.33;;;21.40;;
2362;SDS011;64265;51.664;7.626;2022-10-16T12:27:54;33.20;;;24.27;;
2362;SDS011;64265;51.664;7.626;2022-10-16T12:30:23;24.07;;;20.23;;
2362;SDS011;64265;51.664;7.626;2022-10-16T12:32:54;32.43;;;21.63;;
2362;SDS011;64265;51.664;7.626;2022-10-16T12:35:24;26.87;;;20.33;;
2362;SDS011;64265;51.664;7.626;2022-10-16T12:37:54;26.37;;;21.00;;
2362;SDS011;64265;51.664;7.626;2022-10-16T12:40:32;31.60;;;21.13;;
2362;SDS011;64265;51.664;7.626;2022-10-16T12:43:10;32.20;;;22.07;;
2362;SDS011;64265;51.664;7.626;2022-10-16T12:45:38;29.77;;;22.07;;
2362;SDS011;64265;51.664;7.626;2022-10-16T12:48:18;23.67;;;19.33;;
2362;SDS011;64265;51.664;7.626;2022-10-16T12:50:45;22.00;;;19.60;;
2362;SDS011;64265;51.664;7.626;2022-10-16T12:53:20;28.30;;;19.90;;
2362;SDS011;64265;51.664;7.626;2022-10-16T12:55:52;29.37;;;20.23;;
2362;SDS011;64265;51.664;7.626;2022-10-16T13:01:22;25.63;;;20.83;;
2362;SDS011;64265;51.664;7.626;2022-10-16T13:06:58;27.73;;;19.57;;
2362;SDS011;64265;51.664;7.626;2022-10-16T13:09:41;27.37;;;20.83;;
2362;SDS011;64265;51.664;7.626;2022-10-16T13:15:17;30.13;;;19.40;;
2362;SDS011;64265;51.664;7.626;2022-10-16T13:17:53;24.40;;;18.27;;
2362;SDS011;64265;51.664;7.626;2022-10-16T13:20:28;23.10;;;18.27;;
2362;SDS011;64265;51.664;7.626;2022-10-16T13:23:01;25.33;;;18.60;;
2362;SDS011;64265;51.664;7.626;2022-10-16T13:25:38;24.67;;;18.20;;
2362;SDS011;64265;51.664;7.626;2022-10-16T13:28:12;26.07;;;18.53;;
2362;SDS011;64265;51.664;7.626;2022-10-16T13:30:40;24.30;;;17.33;;
2362;SDS011;64265;51.664;7.626;2022-10-16T13:33:12;23.93;;;18.33;;
2362;SDS011;64265;51.664;7.626;2022-10-16T13:35:46;27.70;;;18.00;;
2362;SDS011;64265;51.664;7.626;2022-10-16T13:38:15;23.17;;;16.90;;
2362;SDS011;64265;51.664;7.626;2022-10-16T13:40:52;23.00;;;16.43;;
2362;SDS011;64265;51.664;7.626;2022-10-16T13:43:22;24.00;;;18.13;;
2362;SDS011;64265;51.664;7.626;2022-10-16T13:45:55;20.20;;;16.60;;
2362;SDS011;64265;51.664;7.626;2022-10-16T13:48:24;20.50;;;15.77;;
2362;SDS011;64265;51.664;7.626;2022-10-16T13:51:04;26.17;;;16.23;;
2362;SDS011;64265;51.664;7.626;2022-10-16T13:53:33;21.97;;;17.10;;
2362;SDS011;64265;51.664;7.626;2022-10-16T13:56:03;22.07;;;17.40;;
2362;SDS011;64265;51.664;7.626;2022-10-16T13:58:31;20.60;;;16.67;;
2362;SDS011;64265;51.664;7.626;2022-10-16T14:00:58;20.73;;;16.40;;
2362;SDS011;64265;51.664;7.626;2022-10-16T14:03:28;19.97;;;15.47;;
2362;SDS011;64265;51.664;7.626;2022-10-16T14:05:56;20.03;;;15.80;;
2362;SDS011;64265;51.664;7.626;2022-10-16T14:08:26;18.77;;;15.70;;
2362;SDS011;64265;51.664;7.626;2022-10-16T14:10:55;22.87;;;15.57;;
2362;SDS011;64265;51.664;7.626;2022-10-16T14:13:28;17.20;;;14.10;;
2362;SDS011;64265;51.664;7.626;2022-10-16T14:15:57;20.77;;;15.10;;
2362;SDS011;64265;51.664;7.626;2022-10-16T14:18:28;20.07;;;15.03;;
2362;SDS011;64265;51.664;7.626;2022-10-16T14:20:55;15.60;;;13.33;;
2362;SDS011;64265;51.664;7.626;2022-10-16T14:23:30;21.63;;;15.83;;
2362;SDS011;64265;51.664;7.626;2022-10-16T14:26:12;21.13;;;13.70;;
2362;SDS011;64265;51.664;7.626;2022-10-16T14:28:43;22.37;;;15.37;;
2362;SDS011;64265;51.664;7.626;2022-10-16T14:31:26;16.93;;;15.17;;
2362;SDS011;64265;51.664;7.626;2022-10-16T14:33:55;22.10;;;14.43;;
2362;SDS011;64265;51.664;7.626;2022-10-16T14:36:25;20.30;;;14.90;;
2362;SDS011;64265;51.664;7.626;2022-10-16T14:38:56;19.73;;;14.07;;
2362;SDS011;64265;51.664;7.626;2022-10-16T14:41:27;19.30;;;14.07;;
2362;SDS011;64265;51.664;7.626;2022-10-16T14:43:56;19.80;;;13.33;;
2362;SDS011;64265;51.664;7.626;2022-10-16T14:46:28;14.87;;;12.63;;
2362;SDS011;64265;51.664;7.626;2022-10-16T14:49:00;19.50;;;13.57;;
2362;SDS011;64265;51.664;7.626;2022-10-16T14:51:29;15.43;;;12.70;;
2362;SDS011;64265;51.664;7.626;2022-10-16T14:53:56;14.60;;;12.33;;
2362;SDS011;64265;51.664;7.626;2022-10-16T14:56:23;14.87;;;12.50;;
2362;SDS011;64265;51.664;7.626;2022-10-16T14:58:53;16.20;;;11.37;;
2362;SDS011;64265;51.664;7.626;2022-10-16T15:01:22;11.30;;;10.20;;
2362;SDS011;64265;51.664;7.626;2022-10-16T15:03:49;15.97;;;10.63;;
2362;SDS011;64265;51.664;7.626;2022-10-16T15:06:17;10.60;;;8.57;;
2362;SDS011;64265;51.664;7.626;2022-10-16T15:08:44;12.93;;;9.37;;
2362;SDS011;64265;51.664;7.626;2022-10-16T15:11:11;15.53;;;8.73;;
2362;SDS011;64265;51.664;7.626;2022-10-16T15:13:39;8.63;;;7.73;;
2362;SDS011;64265;51.664;7.626;2022-10-16T15:16:08;9.70;;;8.30;;
2362;SDS011;64265;51.664;7.626;2022-10-16T15:18:37;6.73;;;6.13;;